Time;durP1;ratioP1;P1;durP2;ratioP2;P2;SDS_P1;SDS_P2;PMS_P1;PMS_P2;Temp;Humidity;BMP_temperature;BMP_pressure;BME280_temperature;BME280_humidity;BME280_pressure;Samples;Min_cycle;Max_cycle;Signal;HPM_P1;HPM_P2
2023/01/07 00:01:28;;;;;;;3.53;1.30;;;11.90;99.90;;;;;;5072993;28;20869;-70
2023/01/07 00:03:55;;;;;;;1.50;1.30;;;11.90;99.90;;;;;;5072566;28;20422;-69
2023/01/07 00:06:22;;;;;;;1.50;1.40;;;11.90;99.90;;;;;;5073139;28;20887;-70
2023/01/07 00:08:49;;;;;;;2.17;1.30;;;11.90;99.90;;;;;;5072517;28;20910;-70
2023/01/07 00:11:18;;;;;;;1.53;1.43;;;11.90;99.90;;;;;;5071069;28;20416;-69
2023/01/07 00:13:45;;;;;;;2.03;1.50;;;11.90;99.90;;;;;;5072648;28;20428;-69
2023/01/07 00:16:13;;;;;;;1.60;1.30;;;11.90;99.90;;;;;;5072361;28;20400;-69
2023/01/07 00:18:39;;;;;;;1.70;1.60;;;11.90;99.90;;;;;;5072300;28;20918;-69
2023/01/07 00:21:07;;;;;;;1.50;1.30;;;12.00;99.90;;;;;;5072285;28;20408;-69
2023/01/07 00:23:35;;;;;;;2.00;1.47;;;12.10;99.90;;;;;;5072189;28;20473;-69
2023/01/07 00:26:05;;;;;;;2.70;1.20;;;12.10;99.90;;;;;;5071627;28;20412;-68
2023/01/07 00:28:33;;;;;;;2.50;1.30;;;12.00;99.90;;;;;;5071583;28;20873;-69
2023/01/07 00:31:05;;;;;;;1.57;1.20;;;12.10;99.90;;;;;;5072011;28;20800;-69
2023/01/07 00:33:33;;;;;;;1.27;1.17;;;12.20;99.90;;;;;;5071902;28;20404;-69
2023/01/07 00:36:07;;;;;;;1.70;1.40;;;12.10;99.90;;;;;;5072001;28;20415;-69
2023/01/07 00:38:33;;;;;;;1.60;1.30;;;12.10;99.90;;;;;;5071832;28;20787;-69
2023/01/07 00:40:59;;;;;;;2.03;1.50;;;12.10;99.90;;;;;;5072001;28;20515;-69
2023/01/07 00:43:24;;;;;;;1.37;1.27;;;12.10;99.90;;;;;;5072043;28;20435;-69
2023/01/07 00:45:50;;;;;;;1.30;1.00;;;12.20;99.90;;;;;;5072402;28;20207;-69
2023/01/07 00:48:17;;;;;;;1.53;1.40;;;12.10;99.90;;;;;;5071651;28;20205;-69
2023/01/07 00:50:44;;;;;;;2.20;1.83;;;12.10;99.90;;;;;;5052541;28;20580;-69
2023/01/07 00:53:11;;;;;;;1.57;1.23;;;12.10;99.90;;;;;;5071813;28;20405;-69
2023/01/07 00:55:36;;;;;;;2.30;1.80;;;12.10;99.90;;;;;;5072013;28;20515;-69
2023/01/07 00:58:02;;;;;;;4.40;1.77;;;12.10;99.90;;;;;;5072126;28;20848;-69
2023/01/07 01:00:28;;;;;;;1.77;1.30;;;12.10;99.90;;;;;;5075648;28;20186;-69
2023/01/07 01:02:53;;;;;;;3.70;1.50;;;12.10;99.90;;;;;;5076218;28;20254;-69
2023/01/07 01:05:20;;;;;;;1.53;1.43;;;12.10;99.90;;;;;;5075451;28;20188;-69
2023/01/07 01:07:46;;;;;;;1.80;1.60;;;12.00;99.90;;;;;;5076075;28;20227;-69
2023/01/07 01:10:14;;;;;;;1.67;1.33;;;12.00;99.90;;;;;;5076003;28;20764;-69
2023/01/07 01:12:41;;;;;;;1.20;1.10;;;11.90;99.90;;;;;;5076185;28;20404;-69
2023/01/07 01:15:10;;;;;;;1.50;1.40;;;11.90;99.90;;;;;;5076338;28;20400;-69
2023/01/07 01:17:36;;;;;;;1.73;1.63;;;11.80;99.90;;;;;;5076177;28;20430;-69
2023/01/07 01:20:02;;;;;;;1.77;1.67;;;11.90;99.90;;;;;;5057307;28;20809;-69
2023/01/07 01:22:28;;;;;;;1.83;1.60;;;11.90;99.90;;;;;;5054229;28;20511;-69
2023/01/07 01:24:53;;;;;;;2.00;1.57;;;11.90;99.90;;;;;;5075541;28;20938;-69
2023/01/07 01:27:19;;;;;;;2.43;1.63;;;12.00;99.90;;;;;;5075104;28;20583;-69
2023/01/07 01:29:45;;;;;;;1.90;1.47;;;12.10;99.90;;;;;;5075286;28;20275;-69
2023/01/07 01:32:11;;;;;;;1.80;1.70;;;12.00;99.90;;;;;;5074644;28;20582;-69
2023/01/07 01:34:36;;;;;;;2.30;2.10;;;12.00;99.90;;;;;;5074893;28;20606;-68
2023/01/07 01:37:03;;;;;;;2.00;1.60;;;12.00;99.90;;;;;;5056916;28;20436;-69
2023/01/07 01:39:29;;;;;;;1.57;1.47;;;12.00;99.90;;;;;;5075325;28;20222;-69
2023/01/07 01:41:54;;;;;;;1.60;1.47;;;12.00;99.90;;;;;;5075142;28;20414;-70
2023/01/07 01:44:35;;;;;;;2.00;1.70;;;11.90;99.90;;;;;;5075162;28;20198;-69
2023/01/07 01:47:04;;;;;;;3.47;1.80;;;11.90;99.90;;;;;;5073459;28;20269;-69
2023/01/07 01:49:34;;;;;;;2.90;1.43;;;11.90;99.90;;;;;;5036811;28;20419;-69
2023/01/07 01:52:05;;;;;;;1.43;1.33;;;11.90;99.90;;;;;;5064680;28;20492;-68
2023/01/07 01:54:32;;;;;;;1.60;1.50;;;11.90;99.90;;;;;;5074818;28;20735;-69
2023/01/07 01:57:00;;;;;;;1.40;1.30;;;11.90;99.90;;;;;;5074876;28;20423;-69
2023/01/07 01:59:29;;;;;;;2.23;1.43;;;11.90;99.90;;;;;;5074798;28;20423;-68
2023/01/07 02:01:55;;;;;;;1.73;1.40;;;11.90;99.90;;;;;;5056502;28;20448;-69
2023/01/07 02:04:23;;;;;;;2.20;1.60;;;11.90;99.90;;;;;;5074913;28;20491;-69
2023/01/07 02:06:51;;;;;;;1.40;1.30;;;11.90;99.90;;;;;;5074499;28;20498;-69
2023/01/07 02:09:17;;;;;;;1.23;1.13;;;12.00;99.90;;;;;;5074562;28;20400;-69
2023/01/07 02:11:58;;;;;;;2.27;1.60;;;12.00;99.90;;;;;;5075130;28;20431;-69
2023/01/07 02:14:31;;;;;;;1.50;1.40;;;12.00;99.90;;;;;;5056738;28;20162;-69
2023/01/07 02:17:10;;;;;;;1.30;1.20;;;12.00;99.90;;;;;;5074773;28;20430;-69
2023/01/07 02:20:09;;;;;;;1.33;1.23;;;12.00;99.90;;;;;;5075863;28;20856;-69
2023/01/07 02:23:02;;;;;;;2.13;1.57;;;12.00;99.90;;;;;;5056736;28;20426;-70
2023/01/07 02:25:50;;;;;;;1.50;1.40;;;12.00;99.90;;;;;;5056836;28;20411;-69
2023/01/07 02:28:27;;;;;;;1.40;1.20;;;12.00;99.90;;;;;;5074510;28;20495;-68
2023/01/07 02:31:07;;;;;;;1.83;1.37;;;12.00;99.90;;;;;;5074579;28;20906;-68
2023/01/07 02:33:56;;;;;;;2.20;1.40;;;12.00;99.90;;;;;;5056564;28;20407;-69
2023/01/07 02:36:27;;;;;;;1.20;1.10;;;12.10;99.90;;;;;;5027225;28;20409;-69
2023/01/07 02:39:07;;;;;;;1.60;1.30;;;12.00;99.90;;;;;;5074312;28;20918;-69
2023/01/07 02:41:54;;;;;;;1.63;1.20;;;12.00;99.90;;;;;;5074096;28;20442;-69
2023/01/07 02:44:54;;;;;;;1.50;1.40;;;12.00;99.90;;;;;;5074563;28;20423;-69
2023/01/07 02:47:27;;;;;;;2.10;1.40;;;11.80;99.90;;;;;;5073680;28;21001;-69
2023/01/07 02:49:53;;;;;;;1.50;1.33;;;11.80;99.90;;;;;;5073992;28;20848;-69
2023/01/07 02:52:27;;;;;;;2.50;1.40;;;11.90;99.90;;;;;;5072120;28;20421;-69
2023/01/07 02:55:07;;;;;;;1.67;1.53;;;11.70;99.90;;;;;;5074304;28;20401;-69
2023/01/07 02:57:56;;;;;;;1.93;1.50;;;11.70;99.90;;;;;;5073810;28;20428;-70
2023/01/07 03:01:06;;;;;;;1.77;1.20;;;11.80;99.90;;;;;;5073959;28;20870;-69
2023/01/07 03:03:42;;;;;;;1.50;1.20;;;11.90;99.90;;;;;;4995579;28;20920;-69
2023/01/07 03:06:28;;;;;;;2.30;1.27;;;11.70;99.90;;;;;;5074634;28;20878;-69
2023/01/07 03:08:59;;;;;;;2.03;1.60;;;11.70;99.90;;;;;;5073295;28;20381;-69
2023/01/07 03:11:30;;;;;;;1.40;1.30;;;11.70;99.90;;;;;;5073406;28;20428;-68
2023/01/07 03:14:14;;;;;;;1.50;1.10;;;11.70;99.90;;;;;;5056566;28;20497;-69
2023/01/07 03:16:44;;;;;;;1.00;0.90;;;11.60;99.90;;;;;;5052884;28;20392;-69
2023/01/07 03:19:18;;;;;;;1.70;1.13;;;11.60;99.90;;;;;;5035279;28;20486;-69
2023/01/07 03:21:47;;;;;;;1.10;1.00;;;11.60;99.90;;;;;;5057457;28;20839;-69
2023/01/07 03:24:14;;;;;;;1.20;1.00;;;11.60;99.90;;;;;;5073474;28;20403;-69
2023/01/07 03:26:45;;;;;;;2.40;1.17;;;11.70;99.90;;;;;;5073039;28;20516;-69
2023/01/07 03:29:13;;;;;;;1.20;1.10;;;11.70;99.90;;;;;;5073024;28;20376;-70
2023/01/07 03:31:45;;;;;;;3.37;1.10;;;11.80;99.90;;;;;;5072719;28;20401;-70
2023/01/07 03:34:18;;;;;;;1.10;1.00;;;11.80;99.90;;;;;;5054848;28;20414;-69
2023/01/07 03:36:48;;;;;;;1.23;1.00;;;11.80;99.90;;;;;;5072756;28;20426;-69
2023/01/07 03:39:14;;;;;;;1.40;1.00;;;12.00;99.90;;;;;;5073926;28;20407;-69
2023/01/07 03:44:24;;;;;;;1.10;1.00;;;11.90;99.90;;;;;;5073240;28;20404;-69
2023/01/07 03:46:51;;;;;;;1.10;1.00;;;11.80;99.90;;;;;;5072740;28;20455;-68
2023/01/07 03:49:16;;;;;;;2.03;1.07;;;11.80;99.90;;;;;;5073266;28;20166;-67
2023/01/07 03:51:42;;;;;;;1.20;1.10;;;11.90;99.90;;;;;;5072788;28;20411;-68
2023/01/07 03:54:08;;;;;;;0.80;0.80;;;11.90;99.90;;;;;;5071707;28;20177;-69
2023/01/07 03:56:34;;;;;;;1.30;0.93;;;11.90;99.90;;;;;;5072674;28;20176;-69
2023/01/07 03:58:59;;;;;;;1.10;0.90;;;11.90;99.90;;;;;;5072404;28;20464;-69
2023/01/07 04:01:26;;;;;;;1.00;0.80;;;11.90;99.90;;;;;;5054349;28;20168;-68
2023/01/07 04:03:51;;;;;;;1.33;1.03;;;11.80;99.90;;;;;;5072181;28;20166;-68
2023/01/07 04:06:17;;;;;;;1.10;1.00;;;11.80;99.90;;;;;;5072346;28;20424;-69
2023/01/07 04:08:43;;;;;;;1.43;0.90;;;11.80;99.90;;;;;;5071722;28;20228;-68
2023/01/07 04:11:09;;;;;;;1.53;1.00;;;11.70;99.90;;;;;;5072324;28;20210;-69
2023/01/07 04:13:35;;;;;;;1.60;1.30;;;11.70;99.90;;;;;;5072291;28;20494;-69
2023/01/07 04:16:00;;;;;;;1.00;0.90;;;11.70;99.90;;;;;;5072491;28;20408;-69
2023/01/07 04:18:26;;;;;;;1.67;1.10;;;11.70;99.90;;;;;;5072634;28;20212;-69
2023/01/07 04:20:51;;;;;;;1.10;1.00;;;11.60;99.90;;;;;;5072677;28;20182;-68
2023/01/07 04:23:17;;;;;;;1.67;1.10;;;11.60;99.90;;;;;;5072498;28;20548;-68
2023/01/07 04:25:46;;;;;;;1.03;0.90;;;11.60;99.90;;;;;;5073253;28;20178;-68
2023/01/07 04:28:12;;;;;;;1.47;0.87;;;11.70;99.90;;;;;;5073216;28;20217;-68
2023/01/07 04:30:37;;;;;;;2.00;1.00;;;11.70;99.90;;;;;;5073015;28;20413;-69
2023/01/07 04:33:04;;;;;;;0.87;0.80;;;11.70;99.90;;;;;;5072872;28;20626;-70
2023/01/07 04:35:31;;;;;;;1.57;0.90;;;11.80;99.90;;;;;;5073160;28;20168;-68
2023/01/07 04:37:56;;;;;;;1.13;1.00;;;11.80;99.90;;;;;;5054772;28;20949;-70
2023/01/07 04:40:22;;;;;;;1.30;1.10;;;11.70;99.90;;;;;;5072240;28;20465;-71
2023/01/07 04:42:48;;;;;;;1.47;1.10;;;11.60;99.90;;;;;;5072753;28;20190;-69
2023/01/07 04:45:13;;;;;;;1.57;1.40;;;11.60;99.90;;;;;;5072761;28;20170;-70
2023/01/07 04:47:39;;;;;;;1.00;0.90;;;11.70;99.90;;;;;;5072403;28;20198;-70
2023/01/07 04:50:05;;;;;;;2.00;1.10;;;11.60;99.90;;;;;;5072796;28;20692;-70
2023/01/07 04:52:31;;;;;;;1.80;1.20;;;11.60;99.90;;;;;;5073268;28;20522;-69
2023/01/07 04:54:56;;;;;;;1.23;1.10;;;11.60;99.90;;;;;;5071083;28;20420;-70
2023/01/07 04:57:22;;;;;;;1.10;1.00;;;11.60;99.90;;;;;;5072518;28;20489;-70
2023/01/07 04:59:47;;;;;;;1.50;1.40;;;11.60;99.90;;;;;;5054384;28;20179;-70
2023/01/07 05:02:13;;;;;;;1.07;0.97;;;11.70;99.90;;;;;;5072452;28;20173;-70
2023/01/07 05:04:38;;;;;;;3.07;1.10;;;11.70;99.90;;;;;;5072648;28;20206;-70
2023/01/07 05:07:04;;;;;;;1.10;1.00;;;11.70;99.90;;;;;;5072174;28;20192;-69
2023/01/07 05:09:29;;;;;;;1.40;1.00;;;11.80;99.90;;;;;;5071934;28;20175;-70
2023/01/07 05:11:55;;;;;;;1.27;1.17;;;11.80;99.90;;;;;;5071954;28;20177;-70
2023/01/07 05:14:21;;;;;;;1.40;1.30;;;11.80;99.90;;;;;;5054743;28;20235;-70
2023/01/07 05:16:46;;;;;;;1.97;1.40;;;11.70;99.90;;;;;;5034469;28;20194;-69
2023/01/07 05:19:12;;;;;;;1.60;1.20;;;11.80;99.90;;;;;;5034147;28;20644;-69
2023/01/07 05:21:37;;;;;;;1.33;1.03;;;11.80;99.90;;;;;;5052303;28;20175;-70
2023/01/07 05:24:03;;;;;;;1.60;1.10;;;11.80;99.90;;;;;;5058655;28;20580;-70
2023/01/07 05:26:28;;;;;;;1.40;1.23;;;11.80;99.90;;;;;;5072442;28;20180;-70
2023/01/07 05:28:54;;;;;;;1.50;1.30;;;11.80;99.90;;;;;;5072445;28;20175;-70
2023/01/07 05:31:20;;;;;;;1.20;1.10;;;11.80;99.90;;;;;;5071879;28;20247;-70
2023/01/07 05:33:45;;;;;;;1.00;0.90;;;11.80;99.90;;;;;;5071428;28;20173;-69
2023/01/07 05:36:11;;;;;;;1.77;1.67;;;11.80;99.90;;;;;;5071388;28;20169;-70
2023/01/07 05:38:37;;;;;;;1.57;1.47;;;11.80;99.90;;;;;;5070774;28;20649;-70
2023/01/07 05:41:03;;;;;;;1.00;0.90;;;11.80;99.90;;;;;;5053424;28;20451;-69
2023/01/07 05:43:30;;;;;;;1.33;1.10;;;11.70;99.90;;;;;;5071780;28;20174;-70
2023/01/07 05:45:56;;;;;;;2.00;1.10;;;11.70;99.90;;;;;;5073076;28;20850;-68
2023/01/07 05:48:22;;;;;;;2.67;1.60;;;11.70;99.90;;;;;;5074306;28;20513;-70
2023/01/07 05:50:47;;;;;;;2.70;1.70;;;11.70;99.90;;;;;;5074992;28;20405;-69
2023/01/07 05:53:13;;;;;;;4.80;4.10;;;11.60;99.90;;;;;;5055895;28;20207;-69
2023/01/07 05:55:39;;;;;;;6.87;4.70;;;11.60;99.90;;;;;;5074394;28;20170;-70
2023/01/07 05:58:05;;;;;;;3.90;3.37;;;11.60;99.90;;;;;;5075108;28;20203;-70
2023/01/07 06:00:31;;;;;;;4.40;3.13;;;11.60;99.90;;;;;;5073696;28;20568;-69
2023/01/07 06:02:57;;;;;;;3.40;3.03;;;11.50;99.90;;;;;;5075079;28;20419;-69
2023/01/07 06:05:23;;;;;;;2.57;2.17;;;11.60;99.90;;;;;;5074721;28;20421;-70
2023/01/07 06:07:48;;;;;;;4.07;3.07;;;11.60;99.90;;;;;;5074508;28;20188;-69
2023/01/07 06:10:14;;;;;;;3.63;2.00;;;11.60;99.90;;;;;;5056631;28;20177;-69
2023/01/07 06:12:40;;;;;;;5.17;2.87;;;11.50;99.90;;;;;;5056716;28;20174;-69
2023/01/07 06:15:06;;;;;;;2.33;1.90;;;11.60;99.90;;;;;;5073741;28;20173;-69
2023/01/07 06:17:32;;;;;;;2.70;1.83;;;11.50;99.90;;;;;;5074611;28;20192;-68
2023/01/07 06:19:58;;;;;;;1.70;1.60;;;11.60;99.90;;;;;;5074872;28;20412;-69
2023/01/07 06:22:24;;;;;;;2.80;1.70;;;11.60;99.90;;;;;;5075147;28;20496;-69
2023/01/07 06:24:49;;;;;;;2.00;1.90;;;11.60;99.90;;;;;;5074755;28;20498;-68
2023/01/07 06:27:15;;;;;;;1.60;1.50;;;11.60;99.90;;;;;;5074717;28;20579;-69
2023/01/07 06:29:40;;;;;;;1.50;1.40;;;11.70;99.90;;;;;;5074542;28;20166;-68
2023/01/07 06:32:06;;;;;;;1.90;1.70;;;11.40;99.90;;;;;;5074523;28;20384;-69
2023/01/07 06:34:31;;;;;;;2.17;1.83;;;11.40;99.90;;;;;;5074585;28;20170;-68
2023/01/07 06:36:57;;;;;;;2.30;2.00;;;11.40;99.90;;;;;;5074540;28;20590;-68
2023/01/07 06:39:23;;;;;;;1.50;1.40;;;11.50;99.90;;;;;;5074081;28;20550;-69
2023/01/07 06:41:48;;;;;;;2.20;1.40;;;11.50;99.90;;;;;;5074981;28;20231;-68
2023/01/07 06:44:14;;;;;;;1.40;1.30;;;11.60;99.90;;;;;;5056892;28;20173;-68
2023/01/07 06:46:39;;;;;;;1.63;1.30;;;11.50;99.90;;;;;;5074447;28;20198;-69
2023/01/07 06:49:05;;;;;;;2.03;1.50;;;11.50;99.90;;;;;;5074354;28;20170;-68
2023/01/07 06:51:30;;;;;;;1.40;1.20;;;11.50;99.90;;;;;;5074548;28;20620;-69
2023/01/07 06:53:56;;;;;;;2.00;1.70;;;11.50;99.90;;;;;;5072822;28;20682;-69
2023/01/07 06:56:22;;;;;;;1.63;1.53;;;11.50;99.90;;;;;;5072603;28;20212;-69
2023/01/07 06:58:47;;;;;;;1.80;1.70;;;11.60;99.90;;;;;;5073826;28;20193;-70
2023/01/07 07:01:13;;;;;;;2.30;1.67;;;11.60;99.90;;;;;;5073560;28;20228;-70
2023/01/07 07:03:38;;;;;;;2.27;1.60;;;11.60;99.90;;;;;;5074248;28;20166;-70
2023/01/07 07:06:04;;;;;;;1.40;1.30;;;11.50;99.90;;;;;;5074346;28;20166;-70
2023/01/07 07:08:30;;;;;;;1.60;1.50;;;11.40;99.90;;;;;;5073725;28;20255;-69
2023/01/07 07:10:55;;;;;;;1.77;1.30;;;11.40;99.90;;;;;;5072338;28;20782;-69
2023/01/07 07:13:21;;;;;;;1.47;1.37;;;11.40;99.90;;;;;;5073901;28;20168;-69
2023/01/07 07:15:48;;;;;;;1.57;1.40;;;11.40;99.90;;;;;;5073706;28;20194;-69
2023/01/07 07:18:14;;;;;;;2.50;1.30;;;11.10;99.90;;;;;;5057579;28;20200;-69
2023/01/07 07:20:40;;;;;;;1.50;1.37;;;11.20;99.90;;;;;;5053401;28;20485;-70
2023/01/07 07:23:05;;;;;;;1.43;1.33;;;11.20;99.90;;;;;;5053523;28;20409;-68
2023/01/07 07:25:31;;;;;;;2.40;1.33;;;11.00;99.90;;;;;;5053100;28;20198;-68
2023/01/07 07:27:56;;;;;;;1.50;1.40;;;11.10;99.90;;;;;;5053656;28;20233;-68
2023/01/07 07:30:22;;;;;;;1.60;1.40;;;11.20;99.90;;;;;;5054020;28;20165;-69
2023/01/07 07:32:48;;;;;;;1.80;1.27;;;11.20;99.90;;;;;;5053540;28;20164;-69
2023/01/07 07:35:13;;;;;;;1.80;1.60;;;10.80;99.90;;;;;;5056170;28;20246;-70
2023/01/07 07:37:39;;;;;;;1.43;1.33;;;10.60;99.90;;;;;;5053470;28;20214;-70
2023/01/07 07:40:06;;;;;;;1.53;1.40;;;10.60;99.90;;;;;;5035497;28;20180;-69
2023/01/07 07:42:31;;;;;;;1.50;1.40;;;10.80;99.90;;;;;;5071274;28;20176;-68
2023/01/07 07:44:57;;;;;;;1.80;1.70;;;10.90;99.90;;;;;;5073933;28;20480;-69
2023/01/07 07:47:23;;;;;;;2.93;1.37;;;11.20;99.90;;;;;;5073224;28;20194;-69
2023/01/07 07:49:49;;;;;;;1.67;1.53;;;11.30;99.90;;;;;;5072691;28;20162;-69
2023/01/07 07:52:15;;;;;;;1.30;1.20;;;11.40;99.90;;;;;;5073060;28;20596;-69
2023/01/07 07:54:41;;;;;;;1.60;1.50;;;11.50;99.90;;;;;;5071229;28;20740;-68
2023/01/07 07:57:07;;;;;;;2.70;1.73;;;11.60;99.90;;;;;;5072625;28;20434;-69
2023/01/07 07:59:32;;;;;;;9.30;6.30;;;11.60;99.90;;;;;;5072747;28;20542;-68
2023/01/07 08:01:58;;;;;;;12.37;8.90;;;11.60;99.90;;;;;;5073168;28;20212;-69
2023/01/07 08:04:24;;;;;;;1.93;1.73;;;11.70;99.90;;;;;;5072690;28;20166;-68
2023/01/07 08:06:49;;;;;;;1.30;1.20;;;11.80;99.90;;;;;;5072345;28;20247;-69
2023/01/07 08:09:15;;;;;;;3.30;2.00;;;11.80;99.90;;;;;;5072055;28;20169;-69
2023/01/07 08:11:40;;;;;;;1.87;1.43;;;11.60;99.90;;;;;;5072509;28;20206;-69
2023/01/07 08:14:06;;;;;;;1.30;1.20;;;11.60;99.90;;;;;;5072562;28;20266;-70
2023/01/07 08:16:31;;;;;;;1.30;0.90;;;11.70;99.90;;;;;;5072358;28;20171;-69
2023/01/07 08:18:57;;;;;;;1.10;1.00;;;11.80;99.90;;;;;;5072481;28;20656;-69
2023/01/07 08:21:22;;;;;;;1.73;1.63;;;11.90;99.90;;;;;;5072509;28;20570;-70
2023/01/07 08:23:48;;;;;;;1.30;1.20;;;11.90;99.90;;;;;;5072393;28;20178;-69
2023/01/07 08:26:14;;;;;;;1.70;1.27;;;12.00;99.90;;;;;;5071654;28;20644;-69
2023/01/07 08:28:39;;;;;;;3.07;2.77;;;12.00;99.90;;;;;;5072050;28;20550;-68
2023/01/07 08:31:06;;;;;;;5.33;4.83;;;12.00;99.90;;;;;;5072138;28;20167;-69
2023/01/07 08:33:36;;;;;;;2.40;2.20;;;12.10;99.90;;;;;;5072370;28;20212;-68
2023/01/07 08:36:03;;;;;;;2.23;2.03;;;12.10;99.90;;;;;;5072109;28;20812;-69
2023/01/07 08:38:30;;;;;;;1.37;1.27;;;12.20;99.90;;;;;;5071778;28;20448;-69
2023/01/07 08:40:56;;;;;;;1.33;1.20;;;12.20;99.90;;;;;;5053726;28;20891;-68
2023/01/07 08:43:25;;;;;;;2.20;1.57;;;12.20;99.90;;;;;;5071919;28;20415;-70
2023/01/07 08:45:51;;;;;;;1.57;1.47;;;12.10;99.90;;;;;;5071810;28;20407;-69
2023/01/07 08:48:17;;;;;;;1.60;1.50;;;12.10;99.90;;;;;;5071818;28;20444;-69
2023/01/07 08:50:48;;;;;;;2.20;1.40;;;12.10;99.90;;;;;;5071927;28;20164;-68
2023/01/07 08:53:14;;;;;;;1.57;1.47;;;12.20;99.90;;;;;;5054170;28;20508;-70
2023/01/07 08:55:40;;;;;;;2.80;2.27;;;12.20;99.90;;;;;;5070591;28;20873;-68
2023/01/07 08:58:05;;;;;;;2.93;2.60;;;12.20;99.90;;;;;;5071794;28;20738;-68
2023/01/07 09:00:31;;;;;;;3.00;1.90;;;12.30;99.90;;;;;;5072153;28;20180;-68
2023/01/07 09:02:56;;;;;;;1.30;1.20;;;12.30;99.90;;;;;;5072075;28;20170;-70
2023/01/07 09:05:23;;;;;;;1.63;1.37;;;12.40;99.90;;;;;;5071857;28;20254;-69
2023/01/07 09:07:51;;;;;;;1.10;1.00;;;12.40;99.90;;;;;;5072290;28;20193;-69
2023/01/07 09:10:18;;;;;;;1.47;1.37;;;12.30;99.90;;;;;;5071270;28;20408;-69
2023/01/07 09:12:43;;;;;;;1.40;1.30;;;12.20;99.90;;;;;;5070382;28;20427;-70
2023/01/07 09:15:10;;;;;;;1.20;1.00;;;12.20;99.90;;;;;;5053746;28;20408;-70
2023/01/07 09:17:35;;;;;;;1.53;1.43;;;12.10;99.90;;;;;;5053975;28;20195;-70
2023/01/07 09:20:02;;;;;;;1.50;1.40;;;12.10;99.90;;;;;;5073354;28;20399;-70
2023/01/07 09:22:29;;;;;;;1.63;1.53;;;12.20;99.90;;;;;;5075997;28;20210;-70
2023/01/07 09:24:55;;;;;;;2.80;1.60;;;12.00;99.90;;;;;;5059216;28;20409;-69
2023/01/07 09:27:21;;;;;;;1.23;1.13;;;12.20;99.90;;;;;;5057249;28;20830;-69
2023/01/07 09:29:47;;;;;;;1.73;1.50;;;12.30;99.90;;;;;;5055429;28;20200;-70
2023/01/07 09:32:13;;;;;;;2.40;1.70;;;12.40;99.90;;;;;;5057626;28;20412;-69
2023/01/07 09:34:38;;;;;;;2.37;1.60;;;12.30;99.90;;;;;;5047699;28;20170;-69
2023/01/07 09:37:05;;;;;;;2.30;2.00;;;12.30;99.90;;;;;;5066915;28;20188;-69
2023/01/07 09:39:30;;;;;;;2.50;2.30;;;12.20;99.90;;;;;;5047914;28;20177;-70
2023/01/07 09:42:32;;;;;;;4.90;2.97;;;12.40;99.90;;;;;;5066802;28;20445;-70
2023/01/07 09:45:04;;;;;;;3.20;2.90;;;12.60;99.90;;;;;;5075216;28;20155;-70
2023/01/07 09:47:32;;;;;;;2.23;2.03;;;12.50;99.90;;;;;;5074995;28;20449;-69
2023/01/07 09:50:08;;;;;;;3.00;2.70;;;12.40;99.90;;;;;;5074708;28;20396;-68
2023/01/07 09:52:42;;;;;;;3.70;3.40;;;12.30;99.90;;;;;;5057204;28;20922;-68
2023/01/07 09:55:26;;;;;;;3.90;3.50;;;12.30;99.90;;;;;;5073710;28;20460;-69
2023/01/07 09:57:51;;;;;;;3.20;3.00;;;12.00;99.90;;;;;;5074750;28;20508;-69
2023/01/07 10:00:22;;;;;;;4.40;3.30;;;12.00;99.90;;;;;;5074911;28;20824;-68
2023/01/07 10:02:48;;;;;;;4.63;3.33;;;12.00;99.90;;;;;;5057297;28;20241;-69
2023/01/07 10:05:20;;;;;;;3.33;3.03;;;12.10;99.90;;;;;;5056911;28;20424;-69
2023/01/07 10:08:11;;;;;;;5.20;4.03;;;12.10;99.90;;;;;;5075351;28;20201;-68
2023/01/07 10:10:54;;;;;;;4.07;3.67;;;12.30;99.90;;;;;;5063133;28;20458;-69
2023/01/07 10:13:41;;;;;;;3.83;3.20;;;12.50;99.90;;;;;;5056006;28;20410;-70
2023/01/07 10:16:42;;;;;;;3.67;3.37;;;12.70;99.90;;;;;;5074697;28;20461;-70
2023/01/07 10:19:22;;;;;;;3.57;3.27;;;12.10;99.90;;;;;;5056879;28;20396;-67
2023/01/07 10:21:55;;;;;;;3.83;3.20;;;11.90;99.90;;;;;;5074748;28;20395;-69
2023/01/07 10:24:49;;;;;;;3.60;3.30;;;11.90;99.90;;;;;;5074909;28;20389;-68
2023/01/07 10:27:22;;;;;;;6.23;3.23;;;11.80;99.90;;;;;;5071490;28;20583;-69
2023/01/07 10:29:53;;;;;;;3.70;3.40;;;11.90;99.90;;;;;;5075271;28;20391;-70
2023/01/07 10:32:21;;;;;;;3.80;3.50;;;11.70;99.90;;;;;;5074238;28;20388;-70
2023/01/07 10:34:52;;;;;;;4.37;3.97;;;11.70;99.90;;;;;;5074521;28;20412;-69
2023/01/07 10:37:22;;;;;;;4.10;3.70;;;11.80;99.90;;;;;;5074482;28;20495;-70
2023/01/07 10:40:13;;;;;;;6.33;3.73;;;11.90;99.90;;;;;;5074774;28;20428;-68
2023/01/07 10:42:49;;;;;;;4.70;3.70;;;11.70;99.90;;;;;;5074404;28;20420;-70
2023/01/07 10:45:15;;;;;;;4.73;4.20;;;11.60;99.90;;;;;;5073957;28;20400;-69
2023/01/07 10:48:02;;;;;;;4.10;3.70;;;11.60;99.90;;;;;;5074013;28;20452;-69
2023/01/07 10:50:47;;;;;;;3.80;3.40;;;11.50;99.90;;;;;;5056288;28;20647;-69
2023/01/07 10:53:45;;;;;;;7.77;4.37;;;11.70;99.90;;;;;;5056293;28;20923;-70
2023/01/07 10:56:22;;;;;;;3.80;3.50;;;11.60;99.90;;;;;;5072909;28;20408;-70
2023/01/07 10:58:49;;;;;;;5.00;4.60;;;11.80;99.90;;;;;;5073778;28;20443;-70
2023/01/07 11:01:23;;;;;;;5.00;4.60;;;11.70;99.90;;;;;;5073893;28;20770;-70
2023/01/07 11:03:51;;;;;;;4.43;3.77;;;11.90;99.90;;;;;;5055760;28;20972;-70
2023/01/07 11:06:24;;;;;;;4.73;4.33;;;12.20;99.90;;;;;;5072467;28;20416;-70
2023/01/07 11:08:50;;;;;;;5.30;4.70;;;13.40;99.90;;;;;;5073564;28;20439;-70
2023/01/07 11:11:19;;;;;;;5.00;4.50;;;14.30;99.90;;;;;;5072706;28;20425;-70
2023/01/07 11:13:57;;;;;;;4.57;4.17;;;15.50;99.90;;;;;;5071993;28;20603;-71
2023/01/07 11:16:29;;;;;;;4.00;3.57;;;16.80;99.90;;;;;;5055286;28;20404;-70
2023/01/07 11:19:07;;;;;;;3.87;3.57;;;17.20;99.90;;;;;;5074122;28;20409;-70
2023/01/07 11:21:43;;;;;;;5.07;4.60;;;18.10;98.80;;;;;;5055129;28;20798;-70
2023/01/07 11:24:31;;;;;;;4.40;4.00;;;17.50;98.00;;;;;;5074399;28;20389;-71
2023/01/07 11:27:16;;;;;;;4.77;4.37;;;16.60;99.00;;;;;;5044163;28;20460;-70
2023/01/07 11:29:45;;;;;;;3.63;3.33;;;17.10;99.10;;;;;;5053674;28;20443;-70
2023/01/07 11:32:24;;;;;;;4.17;3.87;;;17.70;98.30;;;;;;5065819;28;20415;-69
2023/01/07 11:34:58;;;;;;;4.40;4.00;;;17.80;97.50;;;;;;5073047;28;20407;-70
2023/01/07 11:37:32;;;;;;;3.77;3.47;;;18.10;97.90;;;;;;5055174;28;20450;-70
2023/01/07 11:40:00;;;;;;;4.60;4.20;;;;;;;;;;5072827;28;20396;-71
2023/01/07 11:42:37;;;;;;;4.33;4.03;;;18.00;97.40;;;;;;5072536;28;20397;-70
2023/01/07 11:45:21;;;;;;;4.10;3.80;;;18.30;97.20;;;;;;5073029;28;20407;-71
2023/01/07 11:48:09;;;;;;;4.47;4.07;;;18.10;96.50;;;;;;5072739;28;20513;-70
2023/01/07 11:50:52;;;;;;;4.23;3.83;;;18.80;96.50;;;;;;5054624;28;20489;-70
2023/01/07 11:53:18;;;;;;;3.40;3.10;;;19.60;95.20;;;;;;5072678;28;20481;-70
2023/01/07 11:55:56;;;;;;;4.63;4.23;;;19.00;95.50;;;;;;5070908;28;20469;-72
2023/01/07 11:58:23;;;;;;;4.23;3.63;;;19.10;94.80;;;;;;5072461;28;20599;-71
2023/01/07 12:01:07;;;;;;;4.60;4.13;;;18.90;95.30;;;;;;5072616;28;20459;-71
2023/01/07 12:03:34;;;;;;;4.13;3.53;;;19.70;93.60;;;;;;5072790;28;20495;-70
2023/01/07 12:06:05;;;;;;;4.00;3.60;;;20.40;93.00;;;;;;5072707;28;20423;-70
2023/01/07 12:08:31;;;;;;;6.10;4.10;;;20.50;92.50;;;;;;5072061;28;20436;-71
2023/01/07 12:11:02;;;;;;;3.43;3.13;;;20.40;91.50;;;;;;5072011;28;20409;-71
2023/01/07 12:13:28;;;;;;;4.23;3.20;;;20.90;92.20;;;;;;5072598;28;20150;-71
2023/01/07 12:16:06;;;;;;;3.53;3.23;;;20.90;91.30;;;;;;5072594;28;20930;-73
2023/01/07 12:18:48;;;;;;;3.90;3.60;;;21.00;90.40;;;;;;5052279;28;20190;-71
2023/01/07 12:21:42;;;;;;;5.47;3.90;;;20.60;91.00;;;;;;5052168;28;20374;-70
2023/01/07 12:24:20;;;;;;;3.73;3.43;;;20.90;91.00;;;;;;5070745;28;20408;-71
2023/01/07 12:27:29;;;;;;;3.97;3.60;;;21.60;89.40;;;;;;5071805;28;20555;-70
2023/01/07 12:30:19;;;;;;;4.50;3.90;;;21.70;88.30;;;;;;4971482;28;20770;-70
2023/01/07 12:33:05;;;;;;;4.13;3.70;;;21.00;88.50;;;;;;5072277;28;20790;-70
2023/01/07 12:35:42;;;;;;;4.80;4.13;;;22.10;86.40;;;;;;5072060;28;20385;-70
2023/01/07 12:38:26;;;;;;;4.00;3.70;;;22.60;84.30;;;;;;5072367;28;20423;-70
2023/01/07 12:40:57;;;;;;;4.27;3.63;;;20.70;86.10;;;;;;5071730;28;20392;-70
2023/01/07 12:43:32;;;;;;;4.87;4.43;;;19.60;90.00;;;;;;5072063;28;20956;-68
2023/01/07 12:46:19;;;;;;;4.40;4.00;;;18.10;91.60;;;;;;5071978;28;20468;-70
2023/01/07 12:48:56;;;;;;;5.27;4.20;;;16.70;93.70;;;;;;5071125;28;20551;-69
2023/01/07 12:51:44;;;;;;;4.87;4.47;;;15.40;96.40;;;;;;5071778;28;20471;-69
2023/01/07 12:54:34;;;;;;;4.53;4.13;;;14.60;98.40;;;;;;5071603;28;20419;-69
2023/01/07 12:57:24;;;;;;;5.20;4.70;;;14.10;99.90;;;;;;5074558;28;20461;-70
2023/01/07 13:00:14;;;;;;;4.53;4.13;;;13.60;99.90;;;;;;5075205;28;20426;-70
2023/01/07 13:03:03;;;;;;;5.07;4.57;;;13.50;99.90;;;;;;5076473;28;20400;-70
2023/01/07 13:05:37;;;;;;;4.80;4.30;;;13.30;99.90;;;;;;5076169;28;20793;-70
2023/01/07 13:08:38;;;;;;;6.27;4.90;;;13.00;99.90;;;;;;5076507;28;20547;-70